createdAt,value
2018-03-02T00:00:26.947Z,-8.89
2018-03-02T00:01:32.866Z,-8.81
2018-03-02T00:02:39.037Z,-8.88
2018-03-02T00:03:44.934Z,-8.94
2018-03-02T00:04:51.075Z,-8.86
2018-03-02T00:05:56.927Z,-8.88
2018-03-02T00:07:03.123Z,-8.94
2018-03-02T00:08:08.969Z,-8.96
2018-03-02T00:09:14.812Z,-9.00
2018-03-02T00:10:21.014Z,-8.99
2018-03-02T00:11:27.158Z,-9.07
2018-03-02T00:12:33.311Z,-9.03
2018-03-02T00:13:39.151Z,-8.96
2018-03-02T00:14:45.305Z,-9.07
2018-03-02T00:15:56.673Z,-9.07
2018-03-02T00:17:02.209Z,-9.07
2018-03-02T00:18:08.089Z,-9.03
2018-03-02T00:19:14.272Z,-9.02
2018-03-02T00:20:20.180Z,-9.14
2018-03-02T00:21:26.550Z,-9.03
2018-03-02T00:22:32.683Z,-9.07
2018-03-02T00:23:38.561Z,-9.05
2018-03-02T00:24:44.737Z,-9.01
2018-03-02T00:25:50.903Z,-9.00
2018-03-02T00:26:57.033Z,-9.11
2018-03-02T00:28:03.188Z,-9.07
2018-03-02T00:29:09.074Z,-9.10
2018-03-02T00:30:15.257Z,-9.06
2018-03-02T00:31:21.058Z,-9.01
2018-03-02T00:32:26.990Z,-9.06
2018-03-02T00:33:33.163Z,-9.07
2018-03-02T00:34:39.281Z,-9.13
2018-03-02T00:35:45.178Z,-9.09
2018-03-02T00:36:51.361Z,-9.23
2018-03-02T00:37:57.475Z,-9.33
2018-03-02T00:39:03.309Z,-9.23
2018-03-02T00:40:09.196Z,-9.27
2018-03-02T00:41:15.354Z,-9.20
2018-03-02T00:42:21.469Z,-9.12
2018-03-02T00:43:27.638Z,-9.17
2018-03-02T00:44:33.786Z,-9.22
2018-03-02T00:45:39.942Z,-9.17
2018-03-02T00:46:45.772Z,-9.37
2018-03-02T00:47:51.541Z,-9.32
2018-03-02T00:48:57.687Z,-9.28
2018-03-02T00:50:03.836Z,-9.25
2018-03-02T00:51:09.985Z,-9.19
2018-03-02T00:52:16.133Z,-9.21
2018-03-02T00:53:21.972Z,-9.12
2018-03-02T00:54:28.138Z,-9.11
2018-03-02T00:55:34.256Z,-9.25
2018-03-02T00:56:40.398Z,-9.30
2018-03-02T00:57:46.529Z,-9.29
2018-03-02T00:58:52.641Z,-9.26
2018-03-02T00:59:58.823Z,-9.26
2018-03-02T01:01:04.741Z,-9.26
2018-03-02T01:02:10.590Z,-9.36
2018-03-02T01:03:16.754Z,-9.30
2018-03-02T01:04:22.576Z,-9.43
2018-03-02T01:05:28.528Z,-9.31
2018-03-02T01:06:34.684Z,-9.27
2018-03-02T01:07:40.490Z,-9.30
2018-03-02T01:08:46.600Z,-9.30
2018-03-02T01:09:52.457Z,-9.36
2018-03-02T01:10:58.233Z,-9.35
2018-03-02T01:12:10.321Z,-9.21
2018-03-02T01:13:16.137Z,-9.23
2018-03-02T01:14:24.836Z,-9.24
2018-03-02T01:15:30.730Z,-9.31
2018-03-02T01:16:36.893Z,-9.55
2018-03-02T01:17:43.309Z,-9.54
2018-03-02T01:18:49.444Z,-9.57
2018-03-02T01:19:55.354Z,-9.61
2018-03-02T01:21:01.490Z,-9.48
2018-03-02T01:22:07.657Z,-9.55
2018-03-02T01:23:13.788Z,-9.57
2018-03-02T01:24:19.475Z,-9.43
2018-03-02T01:25:25.591Z,-9.54
2018-03-02T01:26:31.689Z,-9.49
2018-03-02T01:27:37.858Z,-9.60
2018-03-02T01:28:43.980Z,-9.54
2018-03-02T01:29:50.125Z,-9.52
2018-03-02T01:30:56.283Z,-9.55
2018-03-02T01:32:02.075Z,-9.53
2018-03-02T01:33:08.198Z,-9.58
2018-03-02T01:34:14.375Z,-9.62
2018-03-02T01:35:20.247Z,-9.54
2018-03-02T01:36:26.189Z,-9.54
2018-03-02T01:37:32.329Z,-9.66
2018-03-02T01:38:38.447Z,-9.57
2018-03-02T01:39:44.609Z,-9.79
2018-03-02T01:40:50.609Z,-9.69
2018-03-02T01:41:56.595Z,-9.63
2018-03-02T01:43:02.515Z,-9.64
2018-03-02T01:44:08.629Z,-9.65
2018-03-02T01:45:14.564Z,-9.60
2018-03-02T01:46:21.673Z,-9.55
2018-03-02T01:47:27.833Z,-9.59
2018-03-02T01:48:33.966Z,-9.69
2018-03-02T01:49:40.116Z,-9.70
2018-03-02T01:50:46.243Z,-9.72
2018-03-02T01:51:52.094Z,-9.83
2018-03-02T01:52:57.971Z,-9.81
2018-03-02T01:54:04.128Z,-9.74
2018-03-02T01:55:10.279Z,-9.81
2018-03-02T01:56:16.138Z,-9.83
2018-03-02T01:57:22.293Z,-9.71
2018-03-02T01:58:28.410Z,-9.81
2018-03-02T01:59:34.509Z,-9.77
2018-03-02T02:00:40.621Z,-9.73
2018-03-02T02:01:45.526Z,-9.84
2018-03-02T02:02:51.408Z,-9.74
2018-03-02T02:03:57.607Z,-9.73
2018-03-02T02:05:03.441Z,-9.70
2018-03-02T02:06:08.911Z,-9.74
2018-03-02T02:07:14.783Z,-9.78
2018-03-02T02:08:20.636Z,-9.93
2018-03-02T02:09:25.802Z,-9.96
2018-03-02T02:10:31.960Z,-10.03
2018-03-02T02:11:38.178Z,-10.00
2018-03-02T02:12:44.321Z,-10.08
2018-03-02T02:13:50.211Z,-10.03
2018-03-02T02:14:56.331Z,-9.94
2018-03-02T02:16:02.532Z,-9.84
2018-03-02T02:17:09.001Z,-9.86
2018-03-02T02:18:15.082Z,-9.86
2018-03-02T02:19:21.041Z,-9.96
2018-03-02T02:20:27.174Z,-10.02
2018-03-02T02:21:32.927Z,-10.06
2018-03-02T02:22:38.736Z,-9.99
2018-03-02T02:23:44.468Z,-9.92
2018-03-02T02:24:50.206Z,-10.01
2018-03-02T02:25:56.065Z,-10.05
2018-03-02T02:27:01.600Z,-10.20
2018-03-02T02:28:07.422Z,-10.17
2018-03-02T02:29:13.592Z,-10.02
2018-03-02T02:30:19.711Z,-10.01
2018-03-02T02:31:25.613Z,-10.09
2018-03-02T02:32:31.758Z,-10.14
2018-03-02T02:33:38.014Z,-10.09
2018-03-02T02:34:44.170Z,-10.05
2018-03-02T02:35:50.328Z,-10.00
2018-03-02T02:36:56.515Z,-9.98
2018-03-02T02:38:02.715Z,-9.98
2018-03-02T02:39:08.830Z,-9.93
2018-03-02T02:40:14.967Z,-10.00
2018-03-02T02:41:26.429Z,-10.02
2018-03-02T02:42:32.565Z,-10.07
2018-03-02T02:43:38.410Z,-10.07
2018-03-02T02:44:44.553Z,-10.14
2018-03-02T02:45:50.719Z,-10.10
2018-03-02T02:46:56.874Z,-10.04
2018-03-02T02:48:03.002Z,-10.12
2018-03-02T02:49:09.135Z,-10.19
2018-03-02T02:50:15.020Z,-10.19
2018-03-02T02:51:21.115Z,-10.20
2018-03-02T02:52:27.051Z,-10.22
2018-03-02T02:53:33.207Z,-10.25
2018-03-02T02:54:39.039Z,-10.28
2018-03-02T02:55:45.156Z,-10.27
2018-03-02T02:56:51.294Z,-10.23
2018-03-02T02:57:57.255Z,-10.17
2018-03-02T02:59:03.097Z,-10.13
2018-03-02T03:00:08.920Z,-10.14
2018-03-02T03:01:15.045Z,-10.15
2018-03-02T03:02:21.192Z,-10.17
2018-03-02T03:03:27.095Z,-10.22
2018-03-02T03:04:33.244Z,-10.10
2018-03-02T03:05:39.386Z,-10.20
2018-03-02T03:06:45.504Z,-10.30
2018-03-02T03:07:51.222Z,-10.33
2018-03-02T03:08:57.066Z,-10.35
2018-03-02T03:10:03.264Z,-10.27
2018-03-02T03:11:09.389Z,-10.27
2018-03-02T03:12:15.804Z,-10.29
2018-03-02T03:13:21.966Z,-10.25
2018-03-02T03:14:27.820Z,-10.35
2018-03-02T03:15:33.693Z,-10.27
2018-03-02T03:16:39.895Z,-10.23
2018-03-02T03:17:46.037Z,-10.17
2018-03-02T03:18:51.996Z,-10.34
2018-03-02T03:19:58.184Z,-10.30
2018-03-02T03:21:04.349Z,-10.34
2018-03-02T03:22:10.501Z,-10.30
2018-03-02T03:23:17.574Z,-10.39
2018-03-02T03:24:23.773Z,-10.40
2018-03-02T03:25:29.980Z,-10.35
2018-03-02T03:26:42.927Z,-10.36
2018-03-02T03:27:49.488Z,-10.37
2018-03-02T03:28:55.633Z,-10.38
2018-03-02T03:30:01.497Z,-10.38
2018-03-02T03:31:07.373Z,-10.31
2018-03-02T03:32:13.166Z,-10.49
2018-03-02T03:33:19.375Z,-10.55
2018-03-02T03:34:25.509Z,-10.53
2018-03-02T03:35:31.681Z,-10.50
2018-03-02T03:36:37.788Z,-10.56
2018-03-02T03:37:43.645Z,-10.45
2018-03-02T03:38:49.943Z,-10.38
2018-03-02T03:39:56.071Z,-10.46
2018-03-02T03:41:02.206Z,-10.51
2018-03-02T03:42:08.077Z,-10.64
2018-03-02T03:43:13.927Z,-10.58
2018-03-02T03:44:19.816Z,-10.57
2018-03-02T03:45:25.992Z,-10.73
2018-03-02T03:46:32.205Z,-10.68
2018-03-02T03:47:38.188Z,-10.58
2018-03-02T03:48:44.174Z,-10.52
2018-03-02T03:49:49.820Z,-10.56
2018-03-02T03:50:55.762Z,-10.51
2018-03-02T03:52:01.788Z,-10.41
2018-03-02T03:53:07.992Z,-10.44
2018-03-02T03:54:14.290Z,-10.47
2018-03-02T03:55:20.306Z,-10.65
2018-03-02T03:56:26.237Z,-10.56
2018-03-02T03:57:32.199Z,-10.70
2018-03-02T03:58:38.568Z,-10.74
2018-03-02T03:59:44.858Z,-10.70
2018-03-02T04:00:51.045Z,-10.58
2018-03-02T04:01:57.314Z,-10.66
2018-03-02T04:03:03.199Z,-10.61
2018-03-02T04:04:08.803Z,-10.58
2018-03-02T04:05:14.710Z,-10.54
2018-03-02T04:06:20.959Z,-10.73
2018-03-02T04:07:26.977Z,-10.65
2018-03-02T04:08:33.238Z,-10.60
2018-03-02T04:09:39.178Z,-10.80
2018-03-02T04:10:45.427Z,-10.75
2018-03-02T04:11:51.704Z,-10.78
2018-03-02T04:12:57.961Z,-10.76
2018-03-02T04:14:03.937Z,-10.80
2018-03-02T04:15:10.165Z,-10.68
2018-03-02T04:16:16.110Z,-10.68
2018-03-02T04:17:22.374Z,-10.64
2018-03-02T04:18:28.602Z,-10.68
2018-03-02T04:19:34.792Z,-10.77
2018-03-02T04:20:41.051Z,-10.70
2018-03-02T04:21:47.106Z,-10.67
2018-03-02T04:22:53.509Z,-10.62
2018-03-02T04:23:59.774Z,-10.62
2018-03-02T04:25:06.043Z,-10.64
2018-03-02T04:26:14.985Z,-10.71
2018-03-02T04:27:20.946Z,-10.79
2018-03-02T04:28:27.196Z,-10.85
2018-03-02T04:29:33.440Z,-10.92
2018-03-02T04:30:39.441Z,-10.89
2018-03-02T04:31:45.747Z,-10.79
2018-03-02T04:32:52.035Z,-10.85
2018-03-02T04:33:58.294Z,-10.79
2018-03-02T04:35:04.530Z,-10.83
2018-03-02T04:36:10.763Z,-10.77
2018-03-02T04:37:17.021Z,-10.88
2018-03-02T04:38:23.294Z,-10.88
2018-03-02T04:39:29.526Z,-10.93
2018-03-02T04:40:35.791Z,-10.88
2018-03-02T04:41:47.304Z,-10.85
2018-03-02T04:42:53.589Z,-10.81
2018-03-02T04:43:59.832Z,-10.79
2018-03-02T04:45:06.091Z,-10.83
2018-03-02T04:46:12.511Z,-10.75
2018-03-02T04:47:18.795Z,-10.86
2018-03-02T04:48:24.997Z,-10.80
2018-03-02T04:49:31.261Z,-10.89
2018-03-02T04:50:37.571Z,-10.95
2018-03-02T04:51:43.533Z,-10.95
2018-03-02T04:52:49.803Z,-10.90
2018-03-02T04:53:56.113Z,-11.07
2018-03-02T04:55:02.408Z,-11.04
2018-03-02T04:56:08.683Z,-11.08
2018-03-02T04:57:14.908Z,-11.02
2018-03-02T04:58:21.139Z,-10.88
2018-03-02T04:59:27.326Z,-10.98
2018-03-02T05:00:33.648Z,-11.04
2018-03-02T05:01:39.665Z,-10.95
2018-03-02T05:02:45.937Z,-10.86
2018-03-02T05:03:58.312Z,-10.75
2018-03-02T05:05:04.530Z,-10.81
2018-03-02T05:06:10.570Z,-10.88
2018-03-02T05:07:16.619Z,-10.90
2018-03-02T05:08:22.837Z,-11.04
2018-03-02T05:09:28.719Z,-11.08
2018-03-02T05:10:34.836Z,-11.06
2018-03-02T05:11:40.691Z,-10.98
2018-03-02T05:12:46.894Z,-10.99
2018-03-02T05:13:52.772Z,-10.91
2018-03-02T05:14:58.975Z,-10.85
2018-03-02T05:16:05.217Z,-10.95
2018-03-02T05:17:16.671Z,-10.92
2018-03-02T05:18:22.781Z,-10.89
2018-03-02T05:19:28.905Z,-10.93
2018-03-02T05:20:35.075Z,-10.92
2018-03-02T05:21:41.241Z,-11.06
2018-03-02T05:22:47.170Z,-11.02
2018-03-02T05:23:53.370Z,-11.02
2018-03-02T05:24:59.784Z,-11.05
2018-03-02T05:26:05.919Z,-11.03
2018-03-02T05:27:12.089Z,-11.16
2018-03-02T05:28:17.988Z,-11.15
2018-03-02T05:29:24.185Z,-11.13
2018-03-02T05:30:30.354Z,-11.22
2018-03-02T05:31:36.474Z,-11.24
2018-03-02T05:32:42.619Z,-11.15
2018-03-02T05:33:49.199Z,-11.15
2018-03-02T05:34:55.351Z,-11.05
2018-03-02T05:36:01.727Z,-11.05
2018-03-02T05:37:09.674Z,-11.18
2018-03-02T05:38:16.130Z,-11.22
2018-03-02T05:39:22.381Z,-11.08
2018-03-02T05:40:28.556Z,-11.13
2018-03-02T05:41:34.468Z,-11.11
2018-03-02T05:42:40.638Z,-11.11
2018-03-02T05:43:46.804Z,-11.16
2018-03-02T05:44:52.953Z,-11.25
2018-03-02T05:45:59.135Z,-11.16
2018-03-02T05:47:05.289Z,-11.21
2018-03-02T05:48:11.407Z,-11.16
2018-03-02T05:49:17.570Z,-11.11
2018-03-02T05:50:23.728Z,-11.06
2018-03-02T05:51:29.920Z,-11.10
2018-03-02T05:52:36.059Z,-11.20
2018-03-02T05:53:42.158Z,-11.13
2018-03-02T05:54:48.301Z,-11.21
2018-03-02T05:55:54.439Z,-11.09
2018-03-02T05:57:00.573Z,-11.18
2018-03-02T05:58:06.432Z,-11.22
2018-03-02T05:59:12.234Z,-11.11
2018-03-02T06:00:18.416Z,-11.19
2018-03-02T06:01:24.594Z,-11.08
2018-03-02T06:02:35.901Z,-11.17
2018-03-02T06:03:42.058Z,-11.15
2018-03-02T06:04:48.168Z,-11.20
2018-03-02T06:05:54.335Z,-11.17
2018-03-02T06:07:00.504Z,-11.18
2018-03-02T06:08:06.658Z,-11.24
2018-03-02T06:09:12.538Z,-11.30
2018-03-02T06:10:18.804Z,-11.18
2018-03-02T06:11:24.930Z,-11.20
2018-03-02T06:12:31.092Z,-11.17
2018-03-02T06:13:37.276Z,-11.09
2018-03-02T06:14:43.383Z,-11.08
2018-03-02T06:15:49.516Z,-11.07
2018-03-02T06:16:55.620Z,-11.16
2018-03-02T06:18:01.189Z,-11.11
2018-03-02T06:19:07.036Z,-11.10
2018-03-02T06:20:13.225Z,-11.24
2018-03-02T06:21:19.386Z,-11.19
2018-03-02T06:22:25.518Z,-11.16
2018-03-02T06:23:31.679Z,-11.14
2018-03-02T06:24:37.831Z,-11.03
2018-03-02T06:25:43.774Z,-10.99
2018-03-02T06:26:50.048Z,-11.07
2018-03-02T06:27:56.230Z,-11.04
2018-03-02T06:29:02.336Z,-11.09
2018-03-02T06:30:08.140Z,-11.17
2018-03-02T06:31:15.700Z,-11.20
2018-03-02T06:32:21.551Z,-11.09
2018-03-02T06:33:27.679Z,-11.14
2018-03-02T06:34:33.832Z,-11.04
2018-03-02T06:35:40.000Z,-11.06
2018-03-02T06:36:46.164Z,-11.04
2018-03-02T06:37:52.291Z,-10.92
2018-03-02T06:38:58.076Z,-10.79
2018-03-02T06:40:04.271Z,-10.85
2018-03-02T06:41:10.096Z,-10.84
2018-03-02T06:42:16.239Z,-10.78
2018-03-02T06:43:22.400Z,-10.71
2018-03-02T06:44:31.391Z,-10.69
2018-03-02T06:45:37.266Z,-10.84
2018-03-02T06:46:43.094Z,-10.86
2018-03-02T06:47:49.271Z,-10.86
2018-03-02T06:48:55.441Z,-10.72
2018-03-02T06:50:01.604Z,-10.67
2018-03-02T06:51:07.783Z,-10.78
2018-03-02T06:52:13.685Z,-10.69
2018-03-02T06:53:19.534Z,-10.67
2018-03-02T06:54:25.787Z,-10.61
2018-03-02T06:55:31.940Z,-10.67
2018-03-02T06:56:38.070Z,-10.75
2018-03-02T06:57:44.176Z,-10.80
2018-03-02T06:58:50.146Z,-10.78
2018-03-02T06:59:56.304Z,-10.62
2018-03-02T07:01:02.470Z,-10.52
2018-03-02T07:02:08.586Z,-10.64
2018-03-02T07:03:14.588Z,-10.60
2018-03-02T07:04:20.744Z,-10.76
2018-03-02T07:05:28.026Z,-10.76
2018-03-02T07:06:34.207Z,-10.80
2018-03-02T07:07:40.328Z,-10.73
2018-03-02T07:08:46.509Z,-10.75
2018-03-02T07:09:52.752Z,-10.61
2018-03-02T07:10:58.913Z,-10.62
2018-03-02T07:12:06.029Z,-10.54
2018-03-02T07:13:12.152Z,-10.75
2018-03-02T07:14:18.310Z,-10.76
2018-03-02T07:15:24.474Z,-10.68
2018-03-02T07:16:30.601Z,-10.50
2018-03-02T07:17:36.764Z,-10.45
2018-03-02T07:18:43.088Z,-10.58
2018-03-02T07:19:49.213Z,-10.59
2018-03-02T07:20:55.398Z,-10.75
2018-03-02T07:22:01.280Z,-10.70
2018-03-02T07:23:07.434Z,-10.77
2018-03-02T07:24:13.565Z,-10.65
2018-03-02T07:25:19.687Z,-10.64
2018-03-02T07:26:25.888Z,-10.60
2018-03-02T07:27:32.345Z,-10.44
2018-03-02T07:28:38.731Z,-10.32
2018-03-02T07:29:45.064Z,-10.27
2018-03-02T07:30:51.210Z,-10.19
2018-03-02T07:31:57.340Z,-10.36
2018-03-02T07:33:03.523Z,-10.34
2018-03-02T07:34:09.739Z,-10.21
2018-03-02T07:35:16.031Z,-10.18
2018-03-02T07:36:22.226Z,-10.17
2018-03-02T07:37:28.378Z,-10.23
2018-03-02T07:38:34.241Z,-10.13
2018-03-02T07:39:41.271Z,-10.08
2018-03-02T07:40:47.638Z,-9.96
2018-03-02T07:41:53.804Z,-10.07
2018-03-02T07:42:59.647Z,-9.97
2018-03-02T07:44:05.808Z,-10.08
2018-03-02T07:45:11.725Z,-10.07
2018-03-02T07:46:17.487Z,-9.90
2018-03-02T07:47:23.002Z,-10.01
2018-03-02T07:48:29.130Z,-10.02
2018-03-02T07:49:34.965Z,-9.90
2018-03-02T07:50:41.117Z,-9.75
2018-03-02T07:51:47.348Z,-9.74
2018-03-02T07:52:53.552Z,-9.71
2018-03-02T07:53:59.674Z,-9.60
2018-03-02T07:55:05.791Z,-9.46
2018-03-02T07:56:11.965Z,-9.74
2018-03-02T07:57:18.133Z,-9.63
2018-03-02T07:58:24.293Z,-9.56
2018-03-02T07:59:29.797Z,-9.64
2018-03-02T08:00:35.678Z,-9.91
2018-03-02T08:01:41.811Z,-9.81
2018-03-02T08:02:47.927Z,-9.75
2018-03-02T08:04:01.714Z,-9.59
2018-03-02T08:05:07.837Z,-9.57
2018-03-02T08:06:13.681Z,-9.59
2018-03-02T08:07:19.830Z,-9.63
2018-03-02T08:08:25.960Z,-9.61
2018-03-02T08:09:32.126Z,-9.50
2018-03-02T08:10:38.271Z,-9.38
2018-03-02T08:11:43.693Z,-9.18
2018-03-02T08:12:52.927Z,-9.19
2018-03-02T08:13:59.134Z,-9.12
2018-03-02T08:15:07.824Z,-9.08
2018-03-02T08:16:13.726Z,-9.23
2018-03-02T08:17:20.039Z,-9.10
2018-03-02T08:18:26.179Z,-9.26
2018-03-02T08:19:32.739Z,-9.22
2018-03-02T08:20:39.129Z,-9.15
2018-03-02T08:21:44.992Z,-9.04
2018-03-02T08:22:50.774Z,-9.05
2018-03-02T08:23:56.571Z,-9.17
2018-03-02T08:25:02.895Z,-8.98
2018-03-02T08:26:09.635Z,-8.89
2018-03-02T08:27:17.817Z,-8.78
2018-03-02T08:28:24.132Z,-8.70
2018-03-02T08:29:30.270Z,-8.74
2018-03-02T08:30:36.378Z,-8.86
2018-03-02T08:31:42.527Z,-8.73
2018-03-02T08:32:49.069Z,-8.80
2018-03-02T08:33:55.242Z,-8.61
2018-03-02T08:35:01.368Z,-8.72
2018-03-02T08:36:07.538Z,-8.62
2018-03-02T08:37:14.460Z,-8.54
2018-03-02T08:38:21.516Z,-8.39
2018-03-02T08:39:27.663Z,-8.23
2018-03-02T08:40:33.559Z,-8.14
2018-03-02T08:41:39.705Z,-8.22
2018-03-02T08:42:45.856Z,-8.23
2018-03-02T08:43:52.008Z,-8.14
2018-03-02T08:44:58.128Z,-8.30
2018-03-02T08:46:04.511Z,-8.31
2018-03-02T08:47:11.281Z,-8.31
2018-03-02T08:48:18.950Z,-8.21
2018-03-02T08:49:25.920Z,-8.20
2018-03-02T08:50:32.728Z,-8.14
2018-03-02T08:51:38.958Z,-8.08
2018-03-02T08:52:46.873Z,-8.15
2018-03-02T08:53:52.944Z,-8.15
2018-03-02T08:54:59.624Z,-8.22
2018-03-02T08:56:06.287Z,-8.27
2018-03-02T08:57:12.593Z,-8.10
2018-03-02T08:58:19.284Z,-8.08
2018-03-02T08:59:25.788Z,-8.03
2018-03-02T09:00:32.428Z,-7.97
2018-03-02T09:01:39.374Z,-8.03
2018-03-02T09:02:45.553Z,-8.02
2018-03-02T09:03:51.563Z,-7.98
2018-03-02T09:04:57.942Z,-8.01
2018-03-02T09:06:03.764Z,-7.93
2018-03-02T09:07:10.280Z,-7.96
2018-03-02T09:08:16.429Z,-7.83
2018-03-02T09:09:22.650Z,-7.68
2018-03-02T09:10:31.480Z,-7.90
2018-03-02T09:11:37.924Z,-7.88
2018-03-02T09:12:44.920Z,-7.77
2018-03-02T09:13:51.661Z,-7.52
2018-03-02T09:14:58.009Z,-7.68
2018-03-02T09:16:04.406Z,-7.58
2018-03-02T09:17:10.898Z,-7.51
2018-03-02T09:18:17.589Z,-7.48
2018-03-02T09:19:24.216Z,-7.55
2018-03-02T09:20:30.917Z,-7.43
2018-03-02T09:21:37.677Z,-7.46
2018-03-02T09:22:44.532Z,-7.39
2018-03-02T09:23:51.141Z,-7.64
2018-03-02T09:24:57.764Z,-7.48
2018-03-02T09:26:04.152Z,-7.49
2018-03-02T09:27:10.775Z,-7.57
2018-03-02T09:28:17.176Z,-7.57
2018-03-02T09:29:23.415Z,-7.42
2018-03-02T09:30:30.004Z,-7.27
2018-03-02T09:31:36.173Z,-7.43
2018-03-02T09:32:42.602Z,-7.43
2018-03-02T09:33:49.409Z,-7.41
2018-03-02T09:34:55.931Z,-7.29
2018-03-02T09:36:02.609Z,-7.29
2018-03-02T09:37:09.405Z,-7.09
2018-03-02T09:38:16.046Z,-7.10
2018-03-02T09:39:22.343Z,-7.07
2018-03-02T09:40:29.384Z,-7.02
2018-03-02T09:41:35.335Z,-7.08
2018-03-02T09:42:41.779Z,-7.09
2018-03-02T09:43:48.428Z,-6.93
2018-03-02T09:44:54.771Z,-6.94
2018-03-02T09:46:02.138Z,-6.94
2018-03-02T09:47:19.487Z,-7.16
2018-03-02T09:48:26.195Z,-7.06
2018-03-02T09:49:32.794Z,-6.88
2018-03-02T09:50:39.988Z,-6.68
2018-03-02T09:51:46.485Z,-6.55
2018-03-02T09:52:52.517Z,-6.38
2018-03-02T09:53:58.714Z,-6.56
2018-03-02T09:55:05.519Z,-6.51
2018-03-02T09:56:13.770Z,-6.58
2018-03-02T09:57:21.691Z,-6.48
2018-03-02T09:58:28.468Z,-6.51
2018-03-02T09:59:35.046Z,-6.37
2018-03-02T10:00:41.651Z,-6.64
2018-03-02T10:01:49.672Z,-6.65
2018-03-02T10:02:55.729Z,-6.48
2018-03-02T10:04:03.617Z,-6.25
2018-03-02T10:05:11.488Z,-6.22
2018-03-02T10:06:18.284Z,-6.07
2018-03-02T10:07:25.243Z,-6.24
2018-03-02T10:08:31.425Z,-6.52
2018-03-02T10:09:38.223Z,-6.41
2018-03-02T10:10:44.386Z,-6.26
2018-03-02T10:11:50.885Z,-6.18
2018-03-02T10:12:57.333Z,-6.07
2018-03-02T10:14:04.707Z,-6.14
2018-03-02T10:15:11.638Z,-6.06
2018-03-02T10:16:19.104Z,-5.74
2018-03-02T10:17:26.451Z,-5.66
2018-03-02T10:18:33.218Z,-5.92
2018-03-02T10:19:39.689Z,-5.72
2018-03-02T10:20:45.841Z,-5.87
2018-03-02T10:21:52.331Z,-5.69
2018-03-02T10:22:59.986Z,-5.63
2018-03-02T10:24:06.403Z,-5.83
2018-03-02T10:25:12.451Z,-5.81
2018-03-02T10:26:19.253Z,-5.65
2018-03-02T10:27:26.347Z,-5.95
2018-03-02T10:28:37.800Z,-5.86
2018-03-02T10:29:44.394Z,-5.83
2018-03-02T10:30:51.142Z,-5.76
2018-03-02T10:31:57.974Z,-5.63
2018-03-02T10:33:04.896Z,-5.49
2018-03-02T10:34:11.768Z,-5.49
2018-03-02T10:35:18.099Z,-5.55
2018-03-02T10:36:24.240Z,-5.38
2018-03-02T10:37:30.164Z,-5.34
2018-03-02T10:38:36.579Z,-5.14
2018-03-02T10:39:43.767Z,-5.09
2018-03-02T10:40:50.502Z,-5.30
2018-03-02T10:41:56.819Z,-5.24
2018-03-02T10:43:02.999Z,-5.18
2018-03-02T10:44:10.558Z,-5.10
2018-03-02T10:45:17.520Z,-5.01
2018-03-02T10:46:23.892Z,-4.99
2018-03-02T10:47:30.373Z,-5.01
2018-03-02T10:48:37.046Z,-4.93
2018-03-02T10:49:43.965Z,-5.16
2018-03-02T10:50:50.387Z,-4.96
2018-03-02T10:51:56.620Z,-5.10
2018-03-02T10:53:03.279Z,-5.26
2018-03-02T10:54:10.577Z,-5.18
2018-03-02T10:55:17.215Z,-5.15
2018-03-02T10:56:23.719Z,-5.15
2018-03-02T10:57:29.889Z,-5.09
2018-03-02T10:58:36.060Z,-4.97
2018-03-02T10:59:41.903Z,-4.93
2018-03-02T11:00:51.528Z,-5.09
2018-03-02T11:01:57.979Z,-4.98
2018-03-02T11:03:04.562Z,-4.80
2018-03-02T11:04:10.416Z,-4.93
2018-03-02T11:05:17.236Z,-4.89
2018-03-02T11:06:23.943Z,-4.97
2018-03-02T11:07:30.313Z,-4.86
2018-03-02T11:08:36.829Z,-4.79
2018-03-02T11:09:42.932Z,-4.73
2018-03-02T11:10:49.517Z,-4.58
2018-03-02T11:11:56.522Z,-4.71
2018-03-02T11:13:02.707Z,-4.51
2018-03-02T11:14:09.138Z,-4.44
2018-03-02T11:15:15.990Z,-4.49
2018-03-02T11:16:22.548Z,-4.60
2018-03-02T11:17:28.789Z,-4.65
2018-03-02T11:18:34.965Z,-4.70
2018-03-02T11:19:42.980Z,-4.60
2018-03-02T11:20:50.032Z,-4.55
2018-03-02T11:21:57.569Z,-4.54
2018-03-02T11:23:04.878Z,-4.38
2018-03-02T11:24:11.534Z,-4.33
2018-03-02T11:25:18.213Z,-4.40
2018-03-02T11:26:24.725Z,-4.47
2018-03-02T11:27:32.005Z,-4.56
2018-03-02T11:28:38.513Z,-4.52
2018-03-02T11:29:45.354Z,-4.67
2018-03-02T11:30:52.414Z,-4.54
2018-03-02T11:31:58.737Z,-4.59
2018-03-02T11:33:05.301Z,-4.31
2018-03-02T11:34:17.408Z,-4.42
2018-03-02T11:35:23.306Z,-4.55
2018-03-02T11:36:29.218Z,-4.42
2018-03-02T11:37:35.480Z,-4.30
2018-03-02T11:38:41.399Z,-4.48
2018-03-02T11:39:47.587Z,-4.47
2018-03-02T11:40:53.492Z,-4.33
2018-03-02T11:41:59.372Z,-4.26
2018-03-02T11:43:05.631Z,-4.16
2018-03-02T11:44:11.188Z,-4.11
2018-03-02T11:45:20.524Z,-4.07
2018-03-02T11:46:26.837Z,-3.91
2018-03-02T11:47:33.017Z,-4.03
2018-03-02T11:48:39.217Z,-4.10
2018-03-02T11:49:45.412Z,-4.06
2018-03-02T11:50:51.371Z,-4.05
2018-03-02T11:51:57.600Z,-3.82
2018-03-02T11:53:03.872Z,-3.72
2018-03-02T11:54:10.068Z,-3.63
2018-03-02T11:55:16.224Z,-3.47
2018-03-02T11:56:22.468Z,-3.45
2018-03-02T11:57:28.749Z,-3.51
2018-03-02T11:58:34.923Z,-3.56
2018-03-02T11:59:40.986Z,-3.47
2018-03-02T12:00:47.024Z,-3.44
2018-03-02T12:01:53.025Z,-3.51
2018-03-02T12:02:59.772Z,-3.42
2018-03-02T12:04:06.384Z,-3.48
2018-03-02T12:05:13.510Z,-3.39
2018-03-02T12:06:20.180Z,-3.42
2018-03-02T12:07:26.580Z,-3.28
2018-03-02T12:08:32.584Z,-3.36
2018-03-02T12:09:38.868Z,-3.45
2018-03-02T12:10:44.908Z,-3.52
2018-03-02T12:11:51.456Z,-3.64
2018-03-02T12:12:58.708Z,-3.58
2018-03-02T12:14:05.634Z,-3.47
2018-03-02T12:15:12.291Z,-3.51
2018-03-02T12:16:19.277Z,-3.53
2018-03-02T12:17:26.294Z,-3.43
2018-03-02T12:18:32.773Z,-3.30
2018-03-02T12:19:38.921Z,-3.55
2018-03-02T12:20:44.973Z,-3.31
2018-03-02T12:21:51.751Z,-3.33
2018-03-02T12:22:58.850Z,-3.35
2018-03-02T12:24:06.807Z,-3.25
2018-03-02T12:25:13.538Z,-3.10
2018-03-02T12:26:20.668Z,-3.19
2018-03-02T12:27:27.479Z,-3.22
2018-03-02T12:28:33.872Z,-3.08
2018-03-02T12:29:40.770Z,-3.03
2018-03-02T12:30:47.298Z,-2.88
2018-03-02T12:31:54.751Z,-2.89
2018-03-02T12:33:02.016Z,-2.89
2018-03-02T12:34:08.885Z,-3.03
2018-03-02T12:35:16.048Z,-3.33
2018-03-02T12:36:23.162Z,-3.42
2018-03-02T12:37:30.420Z,-3.32
2018-03-02T12:38:38.492Z,-3.15
2018-03-02T12:39:45.783Z,-3.13
2018-03-02T12:40:52.954Z,-3.19
2018-03-02T12:41:59.824Z,-3.37
2018-03-02T12:43:06.324Z,-3.20
2018-03-02T12:44:12.695Z,-3.27
2018-03-02T12:45:19.880Z,-3.27
2018-03-02T12:46:26.969Z,-3.24
2018-03-02T12:47:33.217Z,-3.32
2018-03-02T12:48:39.443Z,-3.43
2018-03-02T12:49:45.684Z,-3.31
2018-03-02T12:50:51.938Z,-3.22
2018-03-02T12:51:58.250Z,-3.23
2018-03-02T12:53:04.821Z,-3.13
2018-03-02T12:54:11.189Z,-3.20
2018-03-02T12:55:17.433Z,-3.08
2018-03-02T12:56:23.504Z,-3.29
2018-03-02T12:57:29.782Z,-3.23
2018-03-02T12:58:36.029Z,-3.22
2018-03-02T12:59:42.294Z,-3.32
2018-03-02T13:00:48.585Z,-3.36
2018-03-02T13:01:54.983Z,-3.36
2018-03-02T13:03:01.188Z,-3.50
2018-03-02T13:04:07.211Z,-3.33
2018-03-02T13:05:13.304Z,-3.31
2018-03-02T13:06:19.564Z,-3.18
2018-03-02T13:07:26.323Z,-3.12
2018-03-02T13:08:32.511Z,-3.19
2018-03-02T13:09:38.789Z,-3.21
2018-03-02T13:10:45.066Z,-3.17
2018-03-02T13:11:52.351Z,-3.08
2018-03-02T13:12:58.292Z,-3.15
2018-03-02T13:14:04.574Z,-3.01
2018-03-02T13:15:10.801Z,-2.93
2018-03-02T13:16:17.041Z,-2.85
2018-03-02T13:17:22.944Z,-3.01
2018-03-02T13:18:40.110Z,-3.08
2018-03-02T13:19:46.353Z,-2.94
2018-03-02T13:20:52.348Z,-2.97
2018-03-02T13:21:58.396Z,-2.90
2018-03-02T13:23:04.425Z,-2.98
2018-03-02T13:24:10.683Z,-2.92
2018-03-02T13:25:16.945Z,-2.93
2018-03-02T13:28:12.355Z,-2.96
2018-03-02T13:29:19.282Z,-2.93
2018-03-02T13:30:26.096Z,-2.77
2018-03-02T13:31:32.530Z,-2.94
2018-03-02T13:32:39.891Z,-2.93
2018-03-02T13:33:58.102Z,-2.95
2018-03-02T13:35:14.530Z,-2.91
2018-03-02T13:36:21.476Z,-2.82
2018-03-02T13:37:28.702Z,-2.78
2018-03-02T13:38:35.800Z,-2.86
2018-03-02T13:39:53.623Z,-2.75
2018-03-02T13:41:12.557Z,-2.79
2018-03-02T13:42:18.736Z,-2.83
2018-03-02T13:43:25.753Z,-2.77
2018-03-02T13:44:32.828Z,-2.79
2018-03-02T13:45:39.937Z,-2.73
2018-03-02T13:46:46.553Z,-2.65
2018-03-02T14:00:11.140Z,-2.81
2018-03-02T14:01:17.392Z,-2.82
2018-03-02T14:02:34.837Z,-2.92
2018-03-02T14:03:52.002Z,-2.89
2018-03-02T14:05:01.785Z,-2.76
2018-03-02T14:06:08.109Z,-2.79
2018-03-02T14:07:14.343Z,-2.81
2018-03-02T14:08:20.676Z,-2.77
2018-03-02T14:09:26.945Z,-2.70
2018-03-02T14:10:33.461Z,-2.69
2018-03-02T14:11:39.666Z,-2.64
2018-03-02T14:12:46.005Z,-2.69
2018-03-02T14:13:52.273Z,-2.65
2018-03-02T14:14:58.546Z,-2.59
2018-03-02T14:16:04.806Z,-2.74
2018-03-02T14:17:11.104Z,-2.71
2018-03-02T14:18:17.697Z,-2.70
2018-03-02T14:19:23.711Z,-2.66
2018-03-02T14:20:29.680Z,-2.74